sensor_id;sensor_type;location;lat;lon;timestamp;P1;durP1;ratioP1;P2;durP2;ratioP2
15116;SDS011;7659;51.038;13.786;2024-03-23T00:55:33;18.90;;;11.40;;
15116;SDS011;7659;51.038;13.786;2024-03-23T00:57:58;17.75;;;11.10;;
15116;SDS011;7659;51.038;13.786;2024-03-23T01:00:23;15.70;;;10.43;;
15116;SDS011;7659;51.038;13.786;2024-03-23T01:02:49;13.85;;;9.18;;
15116;SDS011;7659;51.038;13.786;2024-03-23T01:05:14;16.88;;;10.70;;
15116;SDS011;7659;51.038;13.786;2024-03-23T01:07:40;15.25;;;10.00;;
15116;SDS011;7659;51.038;13.786;2024-03-23T01:10:05;13.40;;;10.30;;
15116;SDS011;7659;51.038;13.786;2024-03-23T01:12:31;14.70;;;10.27;;
15116;SDS011;7659;51.038;13.786;2024-03-23T01:14:56;16.73;;;10.25;;
15116;SDS011;7659;51.038;13.786;2024-03-23T01:17:22;15.68;;;10.18;;
15116;SDS011;7659;51.038;13.786;2024-03-23T01:19:47;17.80;;;10.95;;
15116;SDS011;7659;51.038;13.786;2024-03-23T01:22:13;16.75;;;11.85;;
15116;SDS011;7659;51.038;13.786;2024-03-23T01:24:38;16.48;;;11.20;;
15116;SDS011;7659;51.038;13.786;2024-03-23T01:27:04;52.38;;;38.35;;
15116;SDS011;7659;51.038;13.786;2024-03-23T01:29:29;20.13;;;13.63;;
15116;SDS011;7659;51.038;13.786;2024-03-23T01:31:54;20.23;;;13.80;;
15116;SDS011;7659;51.038;13.786;2024-03-23T01:34:20;20.80;;;12.75;;
15116;SDS011;7659;51.038;13.786;2024-03-23T01:36:46;18.23;;;13.13;;
15116;SDS011;7659;51.038;13.786;2024-03-23T01:39:12;17.95;;;13.00;;
15116;SDS011;7659;51.038;13.786;2024-03-23T01:41:37;22.00;;;13.15;;
15116;SDS011;7659;51.038;13.786;2024-03-23T01:44:05;19.50;;;13.23;;
15116;SDS011;7659;51.038;13.786;2024-03-23T01:46:32;18.95;;;13.02;;
15116;SDS011;7659;51.038;13.786;2024-03-23T01:48:58;22.00;;;14.40;;
15116;SDS011;7659;51.038;13.786;2024-03-23T01:51:23;19.77;;;14.35;;
15116;SDS011;7659;51.038;13.786;2024-03-23T01:53:49;21.80;;;14.35;;
15116;SDS011;7659;51.038;13.786;2024-03-23T01:56:15;21.13;;;14.35;;
15116;SDS011;7659;51.038;13.786;2024-03-23T01:58:41;20.48;;;14.40;;
15116;SDS011;7659;51.038;13.786;2024-03-23T02:01:06;19.55;;;13.80;;
15116;SDS011;7659;51.038;13.786;2024-03-23T02:03:31;22.52;;;15.27;;
15116;SDS011;7659;51.038;13.786;2024-03-23T02:05:57;20.75;;;15.23;;
15116;SDS011;7659;51.038;13.786;2024-03-23T02:08:22;23.00;;;15.95;;
15116;SDS011;7659;51.038;13.786;2024-03-23T02:10:48;22.02;;;15.50;;
15116;SDS011;7659;51.038;13.786;2024-03-23T02:13:17;23.85;;;15.13;;
15116;SDS011;7659;51.038;13.786;2024-03-23T02:15:43;26.30;;;15.48;;
15116;SDS011;7659;51.038;13.786;2024-03-23T02:18:09;23.77;;;15.18;;
15116;SDS011;7659;51.038;13.786;2024-03-23T02:20:35;24.65;;;16.48;;
15116;SDS011;7659;51.038;13.786;2024-03-23T02:23:01;28.48;;;18.05;;
15116;SDS011;7659;51.038;13.786;2024-03-23T02:25:26;24.05;;;15.88;;
15116;SDS011;7659;51.038;13.786;2024-03-23T02:27:52;25.58;;;17.05;;
15116;SDS011;7659;51.038;13.786;2024-03-23T02:30:19;25.00;;;17.38;;
15116;SDS011;7659;51.038;13.786;2024-03-23T02:32:45;33.00;;;20.20;;
15116;SDS011;7659;51.038;13.786;2024-03-23T02:35:10;26.77;;;17.40;;
15116;SDS011;7659;51.038;13.786;2024-03-23T02:37:36;28.50;;;17.65;;
15116;SDS011;7659;51.038;13.786;2024-03-23T02:40:01;26.88;;;18.30;;
15116;SDS011;7659;51.038;13.786;2024-03-23T02:42:27;30.90;;;17.48;;
15116;SDS011;7659;51.038;13.786;2024-03-23T02:44:52;26.13;;;18.50;;
15116;SDS011;7659;51.038;13.786;2024-03-23T02:47:18;25.45;;;18.48;;
15116;SDS011;7659;51.038;13.786;2024-03-23T02:49:43;26.10;;;19.48;;
15116;SDS011;7659;51.038;13.786;2024-03-23T02:52:08;25.98;;;18.58;;
15116;SDS011;7659;51.038;13.786;2024-03-23T02:54:34;26.55;;;17.75;;
15116;SDS011;7659;51.038;13.786;2024-03-23T02:56:59;28.58;;;19.73;;
15116;SDS011;7659;51.038;13.786;2024-03-23T02:59:24;26.35;;;18.63;;
15116;SDS011;7659;51.038;13.786;2024-03-23T03:01:50;26.67;;;18.88;;
15116;SDS011;7659;51.038;13.786;2024-03-23T03:04:15;30.25;;;18.92;;
15116;SDS011;7659;51.038;13.786;2024-03-23T03:06:41;30.83;;;19.15;;
15116;SDS011;7659;51.038;13.786;2024-03-23T03:09:06;27.70;;;18.25;;
15116;SDS011;7659;51.038;13.786;2024-03-23T03:11:31;27.58;;;20.08;;
15116;SDS011;7659;51.038;13.786;2024-03-23T03:13:57;33.38;;;23.05;;
15116;SDS011;7659;51.038;13.786;2024-03-23T03:16:25;32.53;;;20.75;;
15116;SDS011;7659;51.038;13.786;2024-03-23T03:18:51;31.65;;;20.35;;
15116;SDS011;7659;51.038;13.786;2024-03-23T03:21:18;28.08;;;20.48;;
15116;SDS011;7659;51.038;13.786;2024-03-23T03:23:44;34.70;;;20.95;;
15116;SDS011;7659;51.038;13.786;2024-03-23T03:26:09;30.98;;;20.23;;
15116;SDS011;7659;51.038;13.786;2024-03-23T03:28:35;29.95;;;20.20;;
15116;SDS011;7659;51.038;13.786;2024-03-23T03:31:00;32.03;;;21.38;;
15116;SDS011;7659;51.038;13.786;2024-03-23T03:33:29;27.90;;;19.48;;
15116;SDS011;7659;51.038;13.786;2024-03-23T03:35:54;29.17;;;20.45;;
15116;SDS011;7659;51.038;13.786;2024-03-23T03:38:20;26.98;;;18.90;;
15116;SDS011;7659;51.038;13.786;2024-03-23T03:40:46;27.27;;;19.20;;
15116;SDS011;7659;51.038;13.786;2024-03-23T03:43:11;25.55;;;17.77;;
15116;SDS011;7659;51.038;13.786;2024-03-23T03:45:37;28.20;;;18.23;;
15116;SDS011;7659;51.038;13.786;2024-03-23T03:48:02;29.20;;;18.17;;
15116;SDS011;7659;51.038;13.786;2024-03-23T03:50:27;27.40;;;17.55;;
15116;SDS011;7659;51.038;13.786;2024-03-23T03:52:53;24.30;;;17.60;;
15116;SDS011;7659;51.038;13.786;2024-03-23T03:55:18;25.98;;;17.38;;
15116;SDS011;7659;51.038;13.786;2024-03-23T03:57:44;24.58;;;17.45;;
15116;SDS011;7659;51.038;13.786;2024-03-23T04:00:09;27.17;;;17.85;;
15116;SDS011;7659;51.038;13.786;2024-03-23T04:02:38;29.40;;;19.33;;
15116;SDS011;7659;51.038;13.786;2024-03-23T04:05:03;27.30;;;18.70;;
15116;SDS011;7659;51.038;13.786;2024-03-23T04:07:29;27.85;;;18.45;;
15116;SDS011;7659;51.038;13.786;2024-03-23T04:09:54;27.77;;;18.25;;
15116;SDS011;7659;51.038;13.786;2024-03-23T04:12:20;27.73;;;18.75;;
15116;SDS011;7659;51.038;13.786;2024-03-23T04:14:45;27.50;;;18.48;;
15116;SDS011;7659;51.038;13.786;2024-03-23T04:17:11;29.20;;;19.30;;
15116;SDS011;7659;51.038;13.786;2024-03-23T04:19:36;28.75;;;19.20;;
15116;SDS011;7659;51.038;13.786;2024-03-23T04:22:02;31.42;;;20.48;;
15116;SDS011;7659;51.038;13.786;2024-03-23T04:24:28;31.10;;;20.23;;
15116;SDS011;7659;51.038;13.786;2024-03-23T04:26:54;30.95;;;21.48;;
15116;SDS011;7659;51.038;13.786;2024-03-23T04:29:19;30.75;;;21.63;;
15116;SDS011;7659;51.038;13.786;2024-03-23T04:31:45;30.33;;;21.02;;
15116;SDS011;7659;51.038;13.786;2024-03-23T04:34:11;31.63;;;20.15;;
15116;SDS011;7659;51.038;13.786;2024-03-23T04:36:36;31.88;;;21.55;;
15116;SDS011;7659;51.038;13.786;2024-03-23T04:39:02;33.08;;;21.33;;
15116;SDS011;7659;51.038;13.786;2024-03-23T04:41:27;31.15;;;21.30;;
15116;SDS011;7659;51.038;13.786;2024-03-23T04:43:53;35.85;;;21.58;;
15116;SDS011;7659;51.038;13.786;2024-03-23T04:46:18;29.63;;;21.42;;
15116;SDS011;7659;51.038;13.786;2024-03-23T04:48:44;29.67;;;19.92;;
15116;SDS011;7659;51.038;13.786;2024-03-23T04:51:10;31.23;;;20.98;;
15116;SDS011;7659;51.038;13.786;2024-03-23T04:53:37;30.17;;;20.58;;
15116;SDS011;7659;51.038;13.786;2024-03-23T04:56:03;28.08;;;19.85;;
15116;SDS011;7659;51.038;13.786;2024-03-23T04:58:29;32.70;;;20.67;;
15116;SDS011;7659;51.038;13.786;2024-03-23T05:00:57;29.58;;;20.17;;
15116;SDS011;7659;51.038;13.786;2024-03-23T05:03:23;28.52;;;19.23;;
15116;SDS011;7659;51.038;13.786;2024-03-23T05:05:49;29.00;;;20.23;;
15116;SDS011;7659;51.038;13.786;2024-03-23T05:08:15;31.00;;;21.00;;
15116;SDS011;7659;51.038;13.786;2024-03-23T05:10:41;33.83;;;21.38;;
15116;SDS011;7659;51.038;13.786;2024-03-23T05:13:07;30.45;;;20.27;;
15116;SDS011;7659;51.038;13.786;2024-03-23T05:15:32;32.97;;;20.17;;
15116;SDS011;7659;51.038;13.786;2024-03-23T05:17:58;34.95;;;19.73;;
15116;SDS011;7659;51.038;13.786;2024-03-23T05:20:23;28.13;;;20.48;;
15116;SDS011;7659;51.038;13.786;2024-03-23T05:22:49;36.08;;;20.20;;
15116;SDS011;7659;51.038;13.786;2024-03-23T05:25:14;33.72;;;21.10;;
15116;SDS011;7659;51.038;13.786;2024-03-23T05:27:41;27.20;;;20.10;;
15116;SDS011;7659;51.038;13.786;2024-03-23T05:30:07;33.05;;;21.23;;
15116;SDS011;7659;51.038;13.786;2024-03-23T05:32:33;29.70;;;18.92;;
15116;SDS011;7659;51.038;13.786;2024-03-23T05:34:59;25.42;;;18.92;;
15116;SDS011;7659;51.038;13.786;2024-03-23T05:37:24;33.15;;;21.13;;
15116;SDS011;7659;51.038;13.786;2024-03-23T05:39:51;29.02;;;20.10;;
15116;SDS011;7659;51.038;13.786;2024-03-23T05:42:16;30.15;;;20.80;;
15116;SDS011;7659;51.038;13.786;2024-03-23T05:44:46;41.85;;;21.73;;
15116;SDS011;7659;51.038;13.786;2024-03-23T05:47:12;33.50;;;21.77;;
15116;SDS011;7659;51.038;13.786;2024-03-23T05:49:40;30.40;;;20.80;;
15116;SDS011;7659;51.038;13.786;2024-03-23T05:52:07;30.83;;;20.48;;
15116;SDS011;7659;51.038;13.786;2024-03-23T05:54:32;25.73;;;17.85;;
15116;SDS011;7659;51.038;13.786;2024-03-23T05:56:58;25.67;;;18.63;;
15116;SDS011;7659;51.038;13.786;2024-03-23T05:59:24;28.13;;;19.38;;
15116;SDS011;7659;51.038;13.786;2024-03-23T06:01:49;23.95;;;16.50;;
15116;SDS011;7659;51.038;13.786;2024-03-23T06:04:15;24.25;;;17.42;;
15116;SDS011;7659;51.038;13.786;2024-03-23T06:06:40;26.80;;;18.40;;
15116;SDS011;7659;51.038;13.786;2024-03-23T06:09:06;27.35;;;17.73;;
15116;SDS011;7659;51.038;13.786;2024-03-23T06:11:31;28.95;;;18.98;;
15116;SDS011;7659;51.038;13.786;2024-03-23T06:13:57;29.98;;;19.25;;
15116;SDS011;7659;51.038;13.786;2024-03-23T06:16:22;28.20;;;19.55;;
15116;SDS011;7659;51.038;13.786;2024-03-23T06:18:52;31.98;;;19.85;;
15116;SDS011;7659;51.038;13.786;2024-03-23T06:21:17;29.95;;;19.40;;
15116;SDS011;7659;51.038;13.786;2024-03-23T06:23:43;28.67;;;19.88;;
15116;SDS011;7659;51.038;13.786;2024-03-23T06:26:13;27.58;;;18.70;;
15116;SDS011;7659;51.038;13.786;2024-03-23T06:28:38;30.15;;;19.50;;
15116;SDS011;7659;51.038;13.786;2024-03-23T06:31:08;30.48;;;21.38;;
15116;SDS011;7659;51.038;13.786;2024-03-23T06:33:34;32.88;;;22.20;;
15116;SDS011;7659;51.038;13.786;2024-03-23T06:35:59;40.50;;;24.05;;
15116;SDS011;7659;51.038;13.786;2024-03-23T06:38:24;42.20;;;26.38;;
15116;SDS011;7659;51.038;13.786;2024-03-23T06:40:50;40.50;;;27.33;;
15116;SDS011;7659;51.038;13.786;2024-03-23T06:43:18;39.72;;;26.30;;
15116;SDS011;7659;51.038;13.786;2024-03-23T06:45:43;43.40;;;28.05;;
15116;SDS011;7659;51.038;13.786;2024-03-23T06:48:09;43.17;;;27.25;;
15116;SDS011;7659;51.038;13.786;2024-03-23T06:50:34;40.42;;;26.85;;
15116;SDS011;7659;51.038;13.786;2024-03-23T06:52:59;39.85;;;26.58;;
15116;SDS011;7659;51.038;13.786;2024-03-23T06:55:27;40.25;;;26.65;;
15116;SDS011;7659;51.038;13.786;2024-03-23T06:57:53;38.33;;;26.45;;
15116;SDS011;7659;51.038;13.786;2024-03-23T07:00:18;37.33;;;26.60;;
15116;SDS011;7659;51.038;13.786;2024-03-23T07:02:44;38.45;;;24.23;;
15116;SDS011;7659;51.038;13.786;2024-03-23T07:05:10;39.75;;;25.33;;
15116;SDS011;7659;51.038;13.786;2024-03-23T07:07:36;40.42;;;24.70;;
15116;SDS011;7659;51.038;13.786;2024-03-23T07:10:01;37.60;;;25.63;;
15116;SDS011;7659;51.038;13.786;2024-03-23T07:12:27;37.40;;;24.40;;
15116;SDS011;7659;51.038;13.786;2024-03-23T07:14:52;38.28;;;24.85;;
15116;SDS011;7659;51.038;13.786;2024-03-23T07:17:18;38.72;;;24.27;;
15116;SDS011;7659;51.038;13.786;2024-03-23T07:19:43;36.25;;;23.90;;
15116;SDS011;7659;51.038;13.786;2024-03-23T07:22:09;35.22;;;22.52;;
15116;SDS011;7659;51.038;13.786;2024-03-23T07:24:35;39.85;;;24.52;;
15116;SDS011;7659;51.038;13.786;2024-03-23T07:27:01;38.05;;;23.95;;
15116;SDS011;7659;51.038;13.786;2024-03-23T07:29:27;39.90;;;23.10;;
15116;SDS011;7659;51.038;13.786;2024-03-23T07:31:52;41.42;;;23.25;;
15116;SDS011;7659;51.038;13.786;2024-03-23T07:34:18;36.08;;;22.38;;
15116;SDS011;7659;51.038;13.786;2024-03-23T07:36:43;36.72;;;22.98;;
15116;SDS011;7659;51.038;13.786;2024-03-23T07:39:09;32.28;;;21.85;;
15116;SDS011;7659;51.038;13.786;2024-03-23T07:41:34;37.88;;;22.73;;
15116;SDS011;7659;51.038;13.786;2024-03-23T07:44:00;33.17;;;22.35;;
15116;SDS011;7659;51.038;13.786;2024-03-23T07:46:26;31.92;;;21.52;;
15116;SDS011;7659;51.038;13.786;2024-03-23T07:48:51;32.53;;;21.42;;
15116;SDS011;7659;51.038;13.786;2024-03-23T07:51:18;33.35;;;20.73;;
15116;SDS011;7659;51.038;13.786;2024-03-23T07:53:44;31.85;;;21.98;;
15116;SDS011;7659;51.038;13.786;2024-03-23T07:56:14;32.67;;;21.85;;
15116;SDS011;7659;51.038;13.786;2024-03-23T07:58:44;29.83;;;20.27;;
15116;SDS011;7659;51.038;13.786;2024-03-23T08:01:13;32.13;;;21.38;;
15116;SDS011;7659;51.038;13.786;2024-03-23T08:03:43;27.88;;;19.13;;
15116;SDS011;7659;51.038;13.786;2024-03-23T08:06:15;28.23;;;19.88;;
15116;SDS011;7659;51.038;13.786;2024-03-23T08:08:41;28.60;;;19.33;;
15116;SDS011;7659;51.038;13.786;2024-03-23T08:11:07;23.25;;;18.27;;
15116;SDS011;7659;51.038;13.786;2024-03-23T08:13:33;27.15;;;19.35;;
15116;SDS011;7659;51.038;13.786;2024-03-23T08:15:59;23.33;;;18.08;;
15116;SDS011;7659;51.038;13.786;2024-03-23T08:18:25;23.15;;;17.25;;
15116;SDS011;7659;51.038;13.786;2024-03-23T08:23:23;29.02;;;19.20;;
15116;SDS011;7659;51.038;13.786;2024-03-23T08:25:48;26.17;;;18.80;;
15116;SDS011;7659;51.038;13.786;2024-03-23T08:28:14;30.50;;;19.63;;
15116;SDS011;7659;51.038;13.786;2024-03-23T08:30:39;26.77;;;18.88;;
15116;SDS011;7659;51.038;13.786;2024-03-23T08:33:04;23.83;;;16.80;;
15116;SDS011;7659;51.038;13.786;2024-03-23T08:35:30;20.48;;;14.80;;
15116;SDS011;7659;51.038;13.786;2024-03-23T08:37:55;18.98;;;15.00;;
15116;SDS011;7659;51.038;13.786;2024-03-23T08:40:21;24.15;;;15.48;;
15116;SDS011;7659;51.038;13.786;2024-03-23T08:42:47;19.80;;;14.30;;
15116;SDS011;7659;51.038;13.786;2024-03-23T08:45:12;20.00;;;14.93;;
15116;SDS011;7659;51.038;13.786;2024-03-23T08:47:38;21.25;;;15.27;;
15116;SDS011;7659;51.038;13.786;2024-03-23T08:50:03;20.50;;;15.98;;
15116;SDS011;7659;51.038;13.786;2024-03-23T08:52:29;22.52;;;15.07;;
15116;SDS011;7659;51.038;13.786;2024-03-23T08:54:55;21.88;;;16.38;;
15116;SDS011;7659;51.038;13.786;2024-03-23T08:57:22;28.10;;;17.30;;
15116;SDS011;7659;51.038;13.786;2024-03-23T08:59:47;25.50;;;16.40;;
15116;SDS011;7659;51.038;13.786;2024-03-23T09:02:12;27.00;;;15.57;;
15116;SDS011;7659;51.038;13.786;2024-03-23T09:04:38;21.63;;;16.02;;
15116;SDS011;7659;51.038;13.786;2024-03-23T09:07:03;25.70;;;18.45;;
15116;SDS011;7659;51.038;13.786;2024-03-23T09:09:29;25.13;;;17.83;;
15116;SDS011;7659;51.038;13.786;2024-03-23T09:11:55;22.98;;;16.60;;
15116;SDS011;7659;51.038;13.786;2024-03-23T09:14:21;20.90;;;16.23;;
15116;SDS011;7659;51.038;13.786;2024-03-23T09:16:49;27.15;;;17.17;;
15116;SDS011;7659;51.038;13.786;2024-03-23T09:19:14;22.73;;;16.23;;
15116;SDS011;7659;51.038;13.786;2024-03-23T09:21:40;27.75;;;18.63;;
15116;SDS011;7659;51.038;13.786;2024-03-23T09:24:05;26.88;;;17.73;;
15116;SDS011;7659;51.038;13.786;2024-03-23T09:26:31;30.55;;;17.10;;
15116;SDS011;7659;51.038;13.786;2024-03-23T09:28:56;21.75;;;16.45;;
15116;SDS011;7659;51.038;13.786;2024-03-23T09:31:22;22.23;;;16.23;;
15116;SDS011;7659;51.038;13.786;2024-03-23T09:33:47;22.25;;;15.02;;
15116;SDS011;7659;51.038;13.786;2024-03-23T09:36:13;17.90;;;13.00;;
15116;SDS011;7659;51.038;13.786;2024-03-23T09:38:38;17.55;;;12.18;;
15116;SDS011;7659;51.038;13.786;2024-03-23T09:41:07;16.73;;;11.52;;
15116;SDS011;7659;51.038;13.786;2024-03-23T09:43:33;13.60;;;10.80;;
15116;SDS011;7659;51.038;13.786;2024-03-23T09:45:58;21.23;;;13.27;;
15116;SDS011;7659;51.038;13.786;2024-03-23T09:48:24;20.42;;;14.32;;
15116;SDS011;7659;51.038;13.786;2024-03-23T09:50:49;24.35;;;15.73;;
15116;SDS011;7659;51.038;13.786;2024-03-23T09:53:15;23.30;;;16.75;;
15116;SDS011;7659;51.038;13.786;2024-03-23T09:55:41;23.58;;;16.40;;
15116;SDS011;7659;51.038;13.786;2024-03-23T09:58:08;27.30;;;16.92;;
15116;SDS011;7659;51.038;13.786;2024-03-23T10:00:37;19.02;;;11.40;;
15116;SDS011;7659;51.038;13.786;2024-03-23T10:03:03;21.52;;;9.20;;
15116;SDS011;7659;51.038;13.786;2024-03-23T10:05:30;8.93;;;4.47;;
15116;SDS011;7659;51.038;13.786;2024-03-23T10:07:57;13.88;;;4.63;;
15116;SDS011;7659;51.038;13.786;2024-03-23T10:10:24;13.73;;;3.25;;
15116;SDS011;7659;51.038;13.786;2024-03-23T10:12:50;8.40;;;2.95;;
15116;SDS011;7659;51.038;13.786;2024-03-23T10:15:19;12.70;;;3.00;;
15116;SDS011;7659;51.038;13.786;2024-03-23T10:17:45;6.03;;;1.30;;
15116;SDS011;7659;51.038;13.786;2024-03-23T10:20:11;4.38;;;0.98;;
15116;SDS011;7659;51.038;13.786;2024-03-23T10:22:39;2.85;;;0.75;;
15116;SDS011;7659;51.038;13.786;2024-03-23T10:25:08;1.60;;;0.43;;
15116;SDS011;7659;51.038;13.786;2024-03-23T10:27:33;3.85;;;0.85;;
15116;SDS011;7659;51.038;13.786;2024-03-23T10:30:07;0.55;;;0.30;;
15116;SDS011;7659;51.038;13.786;2024-03-23T10:32:32;1.35;;;0.65;;
15116;SDS011;7659;51.038;13.786;2024-03-23T10:35:13;0.98;;;0.30;;
15116;SDS011;7659;51.038;13.786;2024-03-23T10:37:38;1.60;;;0.40;;
15116;SDS011;7659;51.038;13.786;2024-03-23T10:40:04;1.95;;;0.60;;
15116;SDS011;7659;51.038;13.786;2024-03-23T10:42:30;1.67;;;0.50;;
15116;SDS011;7659;51.038;13.786;2024-03-23T10:44:57;4.75;;;0.60;;
15116;SDS011;7659;51.038;13.786;2024-03-23T10:47:23;0.95;;;0.38;;
15116;SDS011;7659;51.038;13.786;2024-03-23T10:49:48;3.53;;;0.65;;
15116;SDS011;7659;51.038;13.786;2024-03-23T10:52:14;2.60;;;1.02;;
15116;SDS011;7659;51.038;13.786;2024-03-23T10:54:39;1.25;;;0.80;;
15116;SDS011;7659;51.038;13.786;2024-03-23T10:57:08;0.85;;;0.50;;
15116;SDS011;7659;51.038;13.786;2024-03-23T10:59:35;0.98;;;0.50;;
15116;SDS011;7659;51.038;13.786;2024-03-23T11:02:02;1.25;;;0.65;;
15116;SDS011;7659;51.038;13.786;2024-03-23T11:04:35;2.17;;;0.80;;
15116;SDS011;7659;51.038;13.786;2024-03-23T11:07:01;0.22;;;0.20;;
15116;SDS011;7659;51.038;13.786;2024-03-23T11:09:42;4.43;;;0.60;;
15116;SDS011;7659;51.038;13.786;2024-03-23T11:12:17;0.40;;;0.40;;
15116;SDS011;7659;51.038;13.786;2024-03-23T11:17:21;0.93;;;0.45;;
15116;SDS011;7659;51.038;13.786;2024-03-23T11:19:54;0.45;;;0.22;;
15116;SDS011;7659;51.038;13.786;2024-03-23T11:25:03;0.50;;;0.40;;
15116;SDS011;7659;51.038;13.786;2024-03-23T11:27:28;0.30;;;0.20;;
15116;SDS011;7659;51.038;13.786;2024-03-23T11:29:53;0.98;;;0.65;;
15116;SDS011;7659;51.038;13.786;2024-03-23T11:32:19;1.40;;;0.50;;
15116;SDS011;7659;51.038;13.786;2024-03-23T11:34:44;0.60;;;0.35;;
15116;SDS011;7659;51.038;13.786;2024-03-23T11:37:10;0.45;;;0.20;;
15116;SDS011;7659;51.038;13.786;2024-03-23T11:39:35;0.65;;;0.30;;
15116;SDS011;7659;51.038;13.786;2024-03-23T11:42:01;0.60;;;0.40;;
15116;SDS011;7659;51.038;13.786;2024-03-23T11:44:26;0.57;;;0.25;;
15116;SDS011;7659;51.038;13.786;2024-03-23T11:46:52;0.22;;;0.22;;
15116;SDS011;7659;51.038;13.786;2024-03-23T11:51:47;0.77;;;0.25;;
15116;SDS011;7659;51.038;13.786;2024-03-23T11:54:13;0.75;;;0.40;;
15116;SDS011;7659;51.038;13.786;2024-03-23T11:56:38;0.80;;;0.40;;
15116;SDS011;7659;51.038;13.786;2024-03-23T11:59:04;0.52;;;0.40;;
15116;SDS011;7659;51.038;13.786;2024-03-23T12:01:29;2.22;;;1.08;;
15116;SDS011;7659;51.038;13.786;2024-03-23T12:03:55;0.70;;;0.40;;
15116;SDS011;7659;51.038;13.786;2024-03-23T12:06:20;0.77;;;0.40;;
15116;SDS011;7659;51.038;13.786;2024-03-23T12:08:45;0.30;;;0.30;;
15116;SDS011;7659;51.038;13.786;2024-03-23T12:11:11;2.67;;;0.40;;
15116;SDS011;7659;51.038;13.786;2024-03-23T12:13:38;0.50;;;0.20;;
15116;SDS011;7659;51.038;13.786;2024-03-23T12:16:10;0.80;;;0.40;;
15116;SDS011;7659;51.038;13.786;2024-03-23T12:18:36;1.40;;;0.77;;
15116;SDS011;7659;51.038;13.786;2024-03-23T12:21:02;1.10;;;0.30;;
15116;SDS011;7659;51.038;13.786;2024-03-23T12:23:28;1.23;;;0.50;;
15116;SDS011;7659;51.038;13.786;2024-03-23T12:25:53;0.85;;;0.50;;
15116;SDS011;7659;51.038;13.786;2024-03-23T12:28:19;1.13;;;0.40;;
15116;SDS011;7659;51.038;13.786;2024-03-23T12:30:44;0.85;;;0.50;;
15116;SDS011;7659;51.038;13.786;2024-03-23T12:33:10;1.15;;;0.30;;
15116;SDS011;7659;51.038;13.786;2024-03-23T12:35:35;0.57;;;0.57;;
15116;SDS011;7659;51.038;13.786;2024-03-23T12:38:01;0.50;;;0.47;;
15116;SDS011;7659;51.038;13.786;2024-03-23T12:40:26;0.65;;;0.50;;
15116;SDS011;7659;51.038;13.786;2024-03-23T12:42:53;0.82;;;0.50;;
15116;SDS011;7659;51.038;13.786;2024-03-23T12:45:19;0.60;;;0.60;;
15116;SDS011;7659;51.038;13.786;2024-03-23T12:47:44;0.60;;;0.60;;
15116;SDS011;7659;51.038;13.786;2024-03-23T12:50:09;2.58;;;0.70;;
15116;SDS011;7659;51.038;13.786;2024-03-23T12:52:35;1.02;;;0.70;;
15116;SDS011;7659;51.038;13.786;2024-03-23T12:55:01;0.60;;;0.60;;
15116;SDS011;7659;51.038;13.786;2024-03-23T12:57:26;0.80;;;0.80;;
15116;SDS011;7659;51.038;13.786;2024-03-23T12:59:52;1.13;;;1.02;;
15116;SDS011;7659;51.038;13.786;2024-03-23T13:02:21;2.80;;;1.30;;
15116;SDS011;7659;51.038;13.786;2024-03-23T13:04:49;1.55;;;1.45;;
15116;SDS011;7659;51.038;13.786;2024-03-23T13:07:14;2.70;;;1.65;;
15116;SDS011;7659;51.038;13.786;2024-03-23T13:09:40;1.35;;;1.23;;
15116;SDS011;7659;51.038;13.786;2024-03-23T13:12:05;1.98;;;1.30;;
15116;SDS011;7659;51.038;13.786;2024-03-23T13:14:31;1.60;;;1.45;;
15116;SDS011;7659;51.038;13.786;2024-03-23T13:16:56;5.88;;;1.30;;
15116;SDS011;7659;51.038;13.786;2024-03-23T13:19:23;1.27;;;1.17;;
15116;SDS011;7659;51.038;13.786;2024-03-23T13:21:55;1.77;;;1.25;;
15116;SDS011;7659;51.038;13.786;2024-03-23T13:24:23;2.22;;;1.30;;
15116;SDS011;7659;51.038;13.786;2024-03-23T13:26:50;1.58;;;1.05;;
15116;SDS011;7659;51.038;13.786;2024-03-23T13:29:16;3.88;;;1.40;;
15116;SDS011;7659;51.038;13.786;2024-03-23T13:31:41;2.97;;;1.30;;
15116;SDS011;7659;51.038;13.786;2024-03-23T13:34:07;2.20;;;1.08;;
15116;SDS011;7659;51.038;13.786;2024-03-23T13:36:32;1.45;;;1.10;;
15116;SDS011;7659;51.038;13.786;2024-03-23T13:38:57;1.92;;;1.10;;
15116;SDS011;7659;51.038;13.786;2024-03-23T13:41:23;1.58;;;0.90;;
15116;SDS011;7659;51.038;13.786;2024-03-23T13:43:49;1.88;;;1.20;;
15116;SDS011;7659;51.038;13.786;2024-03-23T13:46:14;2.45;;;1.05;;
15116;SDS011;7659;51.038;13.786;2024-03-23T13:48:40;4.30;;;1.67;;
15116;SDS011;7659;51.038;13.786;2024-03-23T13:51:07;2.70;;;1.05;;
15116;SDS011;7659;51.038;13.786;2024-03-23T13:53:33;2.13;;;0.80;;
15116;SDS011;7659;51.038;13.786;2024-03-23T13:55:58;4.10;;;1.00;;
15116;SDS011;7659;51.038;13.786;2024-03-23T13:58:23;2.88;;;0.88;;
15116;SDS011;7659;51.038;13.786;2024-03-23T14:00:51;3.20;;;1.17;;
15116;SDS011;7659;51.038;13.786;2024-03-23T14:03:16;3.67;;;0.93;;
15116;SDS011;7659;51.038;13.786;2024-03-23T14:05:43;2.63;;;1.13;;
15116;SDS011;7659;51.038;13.786;2024-03-23T14:08:09;4.47;;;1.25;;
15116;SDS011;7659;51.038;13.786;2024-03-23T14:10:35;5.28;;;1.40;;
15116;SDS011;7659;51.038;13.786;2024-03-23T14:13:03;3.53;;;1.48;;
15116;SDS011;7659;51.038;13.786;2024-03-23T14:15:29;4.40;;;1.70;;
15116;SDS011;7659;51.038;13.786;2024-03-23T14:17:55;4.50;;;1.50;;
15116;SDS011;7659;51.038;13.786;2024-03-23T14:20:21;6.38;;;1.23;;
15116;SDS011;7659;51.038;13.786;2024-03-23T14:22:47;4.65;;;1.40;;
15116;SDS011;7659;51.038;13.786;2024-03-23T14:25:12;5.32;;;1.30;;
15116;SDS011;7659;51.038;13.786;2024-03-23T14:27:38;3.42;;;0.98;;
15116;SDS011;7659;51.038;13.786;2024-03-23T14:30:04;5.25;;;1.30;;
15116;SDS011;7659;51.038;13.786;2024-03-23T14:32:30;3.38;;;1.10;;
15116;SDS011;7659;51.038;13.786;2024-03-23T14:35:02;5.90;;;1.38;;
15116;SDS011;7659;51.038;13.786;2024-03-23T14:37:27;3.97;;;1.35;;
15116;SDS011;7659;51.038;13.786;2024-03-23T14:39:55;5.60;;;1.20;;
15116;SDS011;7659;51.038;13.786;2024-03-23T14:42:20;4.75;;;1.48;;
15116;SDS011;7659;51.038;13.786;2024-03-23T14:44:46;5.10;;;1.42;;
15116;SDS011;7659;51.038;13.786;2024-03-23T14:47:11;5.80;;;1.33;;
15116;SDS011;7659;51.038;13.786;2024-03-23T14:49:37;5.22;;;1.17;;
15116;SDS011;7659;51.038;13.786;2024-03-23T14:52:03;6.45;;;1.45;;
15116;SDS011;7659;51.038;13.786;2024-03-23T14:54:28;8.32;;;2.83;;
15116;SDS011;7659;51.038;13.786;2024-03-23T14:56:54;12.45;;;4.50;;
15116;SDS011;7659;51.038;13.786;2024-03-23T14:59:19;4.18;;;1.30;;
15116;SDS011;7659;51.038;13.786;2024-03-23T15:01:45;10.63;;;1.80;;
15116;SDS011;7659;51.038;13.786;2024-03-23T15:04:11;5.47;;;1.73;;
15116;SDS011;7659;51.038;13.786;2024-03-23T15:06:36;5.10;;;1.35;;
15116;SDS011;7659;51.038;13.786;2024-03-23T15:09:02;5.88;;;1.30;;
15116;SDS011;7659;51.038;13.786;2024-03-23T15:11:32;4.75;;;1.67;;
15116;SDS011;7659;51.038;13.786;2024-03-23T15:13:57;5.28;;;1.85;;
15116;SDS011;7659;51.038;13.786;2024-03-23T15:16:23;5.72;;;1.70;;
15116;SDS011;7659;51.038;13.786;2024-03-23T15:18:48;5.05;;;1.48;;
15116;SDS011;7659;51.038;13.786;2024-03-23T15:21:14;8.13;;;2.20;;
15116;SDS011;7659;51.038;13.786;2024-03-23T15:23:44;6.97;;;1.92;;
15116;SDS011;7659;51.038;13.786;2024-03-23T15:26:10;7.57;;;1.50;;
15116;SDS011;7659;51.038;13.786;2024-03-23T15:28:35;6.93;;;2.08;;